Time;durP1;ratioP1;P1;durP2;ratioP2;P2;SDS_P1;SDS_P2;PMS_P1;PMS_P2;Temp;Humidity;BMP_temperature;BMP_pressure;BME280_temperature;BME280_humidity;BME280_pressure;Samples;Min_cycle;Max_cycle;Signal;HPM_P1;HPM_P2
2021/05/26 00:00:09;;;;;;;0.28;0.28;;;;;;;9.44;92.10;99460.91;5084646;28;20021;-61
2021/05/26 00:02:34;;;;;;;0.30;0.30;;;;;;;9.45;92.02;99454.84;5084960;28;20051;-61
2021/05/26 00:05:00;;;;;;;0.30;0.30;;;;;;;9.44;91.98;99455.72;5084720;28;20035;-62
2021/05/26 00:07:25;;;;;;;0.30;0.30;;;;;;;9.45;92.08;99458.28;5084637;28;20028;-62
2021/05/26 00:09:51;;;;;;;0.30;0.30;;;;;;;9.43;91.99;99441.91;5084599;28;20390;-61
2021/05/26 00:12:16;;;;;;;0.30;0.30;;;;;;;9.42;92.04;99443.63;5084447;28;20024;-62
2021/05/26 00:14:42;;;;;;;0.30;0.30;;;;;;;9.43;92.08;99439.31;5084317;28;20076;-61
2021/05/26 00:17:07;;;;;;;0.30;0.30;;;;;;;9.46;92.07;99441.00;5082981;28;20061;-62
2021/05/26 00:19:34;;;;;;;0.30;0.30;;;;;;;9.46;92.18;99439.25;5084415;28;20033;-62
2021/05/26 00:21:59;;;;;;;0.30;0.30;;;;;;;9.47;92.23;99437.53;5084094;28;20347;-62
2021/05/26 00:24:24;;;;;;;0.28;0.28;;;;;;;9.48;92.08;99436.63;5084382;28;20031;-62
2021/05/26 00:26:50;;;;;;;0.25;0.25;;;;;;;9.48;92.11;99434.06;5084296;28;20021;-62
2021/05/26 00:29:15;;;;;;;0.40;0.40;;;;;;;9.50;92.12;99440.06;5082621;28;20377;-61
2021/05/26 00:31:40;;;;;;;0.30;0.30;;;;;;;9.49;92.03;99435.78;5082644;28;20380;-61
2021/05/26 00:34:06;;;;;;;0.30;0.30;;;;;;;9.49;92.14;99426.25;5082718;28;20064;-61
2021/05/26 00:36:31;;;;;;;0.30;0.30;;;;;;;9.49;92.12;99425.41;5084036;28;20021;-61
2021/05/26 00:38:57;;;;;;;0.30;0.30;;;;;;;9.51;92.15;99421.91;5083896;28;20020;-61
2021/05/26 00:41:30;;;;;;;0.30;0.30;;;;;;;9.49;92.14;99418.47;5083720;28;20021;-61
2021/05/26 00:43:56;;;;;;;0.30;0.30;;;;;;;9.49;92.11;99420.22;5083515;28;20086;-61
2021/05/26 00:46:21;;;;;;;0.30;0.30;;;;;;;9.47;92.01;99428.03;5084001;28;20182;-61
2021/05/26 00:48:47;;;;;;;0.30;0.30;;;;;;;9.39;92.01;99417.78;5083966;28;20028;-61
2021/05/26 00:51:12;;;;;;;0.30;0.30;;;;;;;9.33;91.77;99425.69;5083587;28;20119;-61
2021/05/26 00:53:37;;;;;;;0.30;0.30;;;;;;;9.30;91.94;99430.94;5083732;28;20052;-61
2021/05/26 00:56:03;;;;;;;0.30;0.30;;;;;;;9.26;91.96;99430.16;5083690;28;20074;-61
2021/05/26 00:58:29;;;;;;;0.30;0.30;;;;;;;9.24;92.06;99433.63;5083306;28;20071;-61
2021/05/26 01:00:56;;;;;;;0.30;0.30;;;;;;;9.18;91.83;99432.84;5083389;28;20047;-61
2021/05/26 01:03:21;;;;;;;0.20;0.20;;;;;;;9.16;91.93;99431.19;5082550;28;20036;-61
2021/05/26 01:05:47;;;;;;;0.30;0.30;;;;;;;9.15;92.01;99432.09;5083436;28;20033;-60
2021/05/26 01:08:12;;;;;;;0.30;0.30;;;;;;;9.11;92.04;99441.63;5083910;28;20024;-61
2021/05/26 01:10:39;;;;;;;0.28;0.28;;;;;;;9.08;92.05;99439.09;5083465;28;20028;-61
2021/05/26 01:13:04;;;;;;;0.30;0.30;;;;;;;9.07;92.16;99434.81;5083561;28;20024;-61
2021/05/26 01:15:30;;;;;;;0.30;0.30;;;;;;;9.03;92.23;99440.91;5083522;28;20021;-60
2021/05/26 01:17:56;;;;;;;0.30;0.30;;;;;;;8.97;91.98;99443.59;5083420;28;20068;-61
2021/05/26 01:20:29;;;;;;;0.22;0.22;;;;;;;8.90;91.93;99440.25;5083255;28;20056;-60
2021/05/26 01:23:00;;;;;;;0.30;0.30;;;;;;;8.87;91.88;99442.91;5083073;28;20032;-60
2021/05/26 01:25:26;;;;;;;0.30;0.30;;;;;;;8.80;91.89;99452.53;5083472;28;20025;-60
2021/05/26 01:27:51;;;;;;;0.30;0.30;;;;;;;8.72;91.78;99451.78;5083450;28;20051;-61
2021/05/26 01:30:18;;;;;;;0.30;0.30;;;;;;;8.62;91.86;99451.94;5083488;28;20397;-61
2021/05/26 01:32:48;;;;;;;0.30;0.30;;;;;;;8.54;91.57;99446.91;5083598;28;20080;-61
2021/05/26 01:35:16;;;;;;;0.22;0.22;;;;;;;8.45;91.72;99444.38;5083303;28;20046;-60
2021/05/26 01:37:43;;;;;;;0.30;0.30;;;;;;;8.40;91.87;99444.47;5083391;28;20032;-61
2021/05/26 01:40:11;;;;;;;0.30;0.30;;;;;;;8.37;91.92;99454.03;5083030;28;20193;-61
2021/05/26 01:42:37;;;;;;;0.30;0.30;;;;;;;8.36;92.12;99454.88;5083396;28;20055;-60
2021/05/26 01:45:06;;;;;;;0.30;0.30;;;;;;;8.36;92.11;99449.72;5083282;28;20024;-61
2021/05/26 01:47:31;;;;;;;0.40;0.40;;;;;;;8.35;92.26;99454.03;5083265;28;20437;-61
2021/05/26 01:49:57;;;;;;;0.30;0.30;;;;;;;8.31;92.21;99448.06;5083246;28;20040;-60
2021/05/26 01:52:23;;;;;;;0.35;0.35;;;;;;;8.29;92.45;99449.81;5083136;28;20034;-60
2021/05/26 01:54:48;;;;;;;0.38;0.38;;;;;;;8.33;92.41;99454.94;5084548;28;20020;-61
2021/05/26 01:57:14;;;;;;;0.30;0.30;;;;;;;8.34;92.46;99461.81;5087358;28;20020;-61
2021/05/26 01:59:40;;;;;;;0.30;0.30;;;;;;;8.34;92.40;99457.50;5086901;28;20544;-60
2021/05/26 02:02:06;;;;;;;0.30;0.30;;;;;;;8.31;92.39;99458.41;5087294;28;20483;-60
2021/05/26 02:04:31;;;;;;;0.60;0.60;;;;;;;8.32;92.45;99461.84;5086973;28;20028;-61
2021/05/26 02:07:08;;;;;;;0.30;0.30;;;;;;;8.24;92.45;99461.09;5087213;28;20050;-62
2021/05/26 02:09:35;;;;;;;0.30;0.30;;;;;;;8.27;92.59;99472.25;5085657;28;20020;-60
2021/05/26 02:14:45;;;;;;;0.30;0.30;;;;;;;8.24;92.44;99474.03;5086794;28;20071;-61
2021/05/26 02:17:10;;;;;;;0.30;0.30;;;;;;;8.22;92.42;99478.34;5086808;28;20021;-61
2021/05/26 02:19:36;;;;;;;0.30;0.30;;;;;;;8.16;92.56;99476.72;5085487;28;20024;-61
2021/05/26 02:22:01;;;;;;;0.30;0.30;;;;;;;8.18;92.35;99475.81;5086764;28;20080;-61
2021/05/26 02:24:26;;;;;;;0.30;0.30;;;;;;;8.18;92.38;99487.88;5086822;28;20024;-61
2021/05/26 02:26:52;;;;;;;0.30;0.30;;;;;;;8.13;92.52;99471.59;5085663;28;20028;-61
2021/05/26 02:29:17;;;;;;;0.30;0.30;;;;;;;8.13;92.53;99484.53;5086494;28;20384;-61
2021/05/26 02:31:42;;;;;;;0.30;0.30;;;;;;;8.10;92.45;99479.38;5086609;28;20481;-61
2021/05/26 02:34:08;;;;;;;0.30;0.30;;;;;;;8.07;92.53;99475.09;5086336;28;20027;-61
2021/05/26 02:36:33;;;;;;;0.30;0.30;;;;;;;8.04;92.50;99485.47;5086837;28;20022;-61
2021/05/26 02:38:58;;;;;;;0.30;0.30;;;;;;;8.00;92.48;99479.50;5086372;28;20079;-61
2021/05/26 02:41:24;;;;;;;0.30;0.30;;;;;;;7.99;92.52;99489.84;5086158;28;20031;-61
2021/05/26 02:43:49;;;;;;;0.40;0.40;;;;;;;7.98;92.51;99480.38;5086065;28;20020;-61
2021/05/26 02:46:14;;;;;;;0.30;0.30;;;;;;;7.98;92.62;99485.56;5086259;28;20584;-61
2021/05/26 02:48:40;;;;;;;0.30;0.30;;;;;;;7.97;92.62;99486.44;5086060;28;20025;-62
2021/05/26 02:51:05;;;;;;;0.30;0.30;;;;;;;7.96;92.62;99492.47;5085916;28;20032;-61
2021/05/26 02:53:30;;;;;;;0.30;0.30;;;;;;;7.94;92.63;99488.19;5085966;28;20021;-61
2021/05/26 02:55:56;;;;;;;0.20;0.20;;;;;;;7.97;92.68;99491.63;5086194;28;20025;-61
2021/05/26 02:58:21;;;;;;;0.30;0.30;;;;;;;7.97;92.65;99489.88;5085877;28;20025;-61
2021/05/26 03:00:46;;;;;;;0.30;0.30;;;;;;;7.96;92.58;99493.34;5084208;28;20017;-61
2021/05/26 03:03:12;;;;;;;0.40;0.40;;;;;;;7.99;92.70;99492.44;5086078;28;20083;-61
2021/05/26 03:05:37;;;;;;;0.30;0.30;;;;;;;8.00;92.71;99491.56;5085659;28;20099;-61
2021/05/26 03:08:03;;;;;;;0.30;0.30;;;;;;;8.02;92.72;99498.41;5085810;28;20043;-62
2021/05/26 03:10:28;;;;;;;0.30;0.30;;;;;;;8.01;92.69;99486.38;5085617;28;20051;-61
2021/05/26 03:12:54;;;;;;;0.30;0.30;;;;;;;8.02;92.67;99497.59;5085760;28;20020;-62
2021/05/26 03:15:19;;;;;;;0.30;0.30;;;;;;;8.02;92.58;99495.84;5085009;28;20032;-62
2021/05/26 03:17:45;;;;;;;0.30;0.30;;;;;;;8.00;92.61;99483.81;5085329;28;20052;-62
2021/05/26 03:20:13;;;;;;;1.10;1.02;;;;;;;8.00;92.68;99500.19;5085475;28;20056;-61
2021/05/26 03:22:40;;;;;;;0.30;0.30;;;;;;;8.00;92.69;99499.31;5085461;28;20028;-61
2021/05/26 03:25:06;;;;;;;0.28;0.28;;;;;;;7.99;92.74;99490.72;5085405;28;20035;-62
2021/05/26 03:27:36;;;;;;;0.30;0.30;;;;;;;7.98;92.89;99491.59;5085482;28;20028;-61
2021/05/26 03:30:04;;;;;;;0.30;0.30;;;;;;;8.02;92.78;99502.75;5085157;28;20024;-61
2021/05/26 03:32:30;;;;;;;0.30;0.30;;;;;;;8.02;92.73;99492.41;5085296;28;20151;-61
2021/05/26 03:34:55;;;;;;;0.30;0.30;;;;;;;8.07;92.84;99503.53;5085199;28;20031;-61
2021/05/26 03:37:21;;;;;;;0.30;0.30;;;;;;;8.05;92.77;99505.31;5085171;28;20025;-62
2021/05/26 03:39:46;;;;;;;0.30;0.30;;;;;;;8.05;92.73;99510.47;5085186;28;20047;-61
2021/05/26 03:42:11;;;;;;;0.32;0.32;;;;;;;8.06;92.66;99513.03;5084987;28;20025;-62
2021/05/26 03:44:37;;;;;;;0.30;0.30;;;;;;;8.09;92.82;99506.09;5084808;28;20025;-62
2021/05/26 03:47:02;;;;;;;0.30;0.30;;;;;;;8.11;92.93;99507.81;5084981;28;20021;-61
2021/05/26 03:49:28;;;;;;;0.35;0.35;;;;;;;8.16;92.81;99515.50;5084724;28;20024;-60
2021/05/26 03:51:53;;;;;;;0.32;0.32;;;;;;;8.18;92.73;99517.19;5083287;28;20096;-61
2021/05/26 03:54:18;;;;;;;0.30;0.30;;;;;;;8.21;92.81;99512.84;5085207;28;20035;-61
2021/05/26 03:56:44;;;;;;;0.30;0.30;;;;;;;8.21;92.65;99508.50;5085131;28;20036;-61
2021/05/26 03:59:09;;;;;;;0.30;0.30;;;;;;;8.23;92.68;99509.38;5084995;28;20048;-61
2021/05/26 04:01:36;;;;;;;0.30;0.30;;;;;;;8.26;92.80;99511.06;5085435;28;20035;-61
2021/05/26 04:04:01;;;;;;;0.30;0.30;;;;;;;8.31;92.84;99512.72;5084967;28;20344;-59
2021/05/26 04:06:27;;;;;;;0.30;0.30;;;;;;;8.45;93.07;99515.97;5084791;28;20351;-61
2021/05/26 04:08:53;;;;;;;0.30;0.30;;;;;;;8.58;93.02;99509.78;5084761;28;20025;-60
2021/05/26 04:11:18;;;;;;;0.30;0.30;;;;;;;8.66;92.80;99505.34;5084649;28;20115;-62
2021/05/26 04:13:44;;;;;;;0.30;0.30;;;;;;;8.85;93.28;99507.63;5084897;28;20051;-62
2021/05/26 04:16:09;;;;;;;0.30;0.30;;;;;;;9.08;93.30;99521.97;5084684;28;20028;-62
2021/05/26 04:18:34;;;;;;;0.30;0.30;;;;;;;9.19;93.00;99516.59;5082442;28;20040;-62
2021/05/26 04:21:00;;;;;;;0.20;0.20;;;;;;;9.20;93.03;99520.06;5084532;28;20035;-62
2021/05/26 04:23:25;;;;;;;0.30;0.30;;;;;;;9.16;92.85;99514.91;5084561;28;20024;-62
2021/05/26 04:25:51;;;;;;;0.30;0.30;;;;;;;9.07;92.57;99509.03;5084591;28;20112;-62
2021/05/26 04:28:21;;;;;;;0.30;0.30;;;;;;;9.02;92.56;99515.16;5084474;28;20023;-63
2021/05/26 04:30:48;;;;;;;0.30;0.30;;;;;;;9.00;92.57;99511.72;5084206;28;20123;-63
2021/05/26 04:33:14;;;;;;;0.30;0.30;;;;;;;8.88;92.24;99504.16;5084403;28;20024;-62
2021/05/26 04:35:39;;;;;;;0.30;0.30;;;;;;;8.85;91.99;99512.81;5084453;28;20067;-63
2021/05/26 04:38:05;;;;;;;0.30;0.30;;;;;;;8.81;92.21;99516.34;5084053;28;20024;-61
2021/05/26 04:40:31;;;;;;;0.30;0.30;;;;;;;8.77;92.06;99512.09;5084363;28;20024;-64
2021/05/26 04:42:56;;;;;;;0.30;0.30;;;;;;;8.65;92.16;99506.22;5082830;28;20307;-66
2021/05/26 04:45:22;;;;;;;0.30;0.30;;;;;;;8.74;92.10;99510.41;5084183;28;20028;-66
2021/05/26 04:47:47;;;;;;;0.30;0.30;;;;;;;8.69;92.18;99501.84;5084136;28;20393;-66
2021/05/26 04:50:13;;;;;;;0.30;0.30;;;;;;;8.72;92.06;99513.91;5084129;28;20364;-65
2021/05/26 04:52:38;;;;;;;0.30;0.30;;;;;;;8.71;92.16;99514.75;5083981;28;20091;-66
2021/05/26 04:55:04;;;;;;;0.30;0.30;;;;;;;8.72;92.20;99514.75;5084066;28;20052;-65
2021/05/26 04:57:30;;;;;;;0.30;0.30;;;;;;;8.73;92.14;99520.78;5083745;28;20033;-64
2021/05/26 04:59:55;;;;;;;0.30;0.30;;;;;;;8.73;92.23;99520.78;5083437;28;20037;-64
2021/05/26 05:02:20;;;;;;;0.30;0.30;;;;;;;8.82;92.41;99520.63;5083925;28;20024;-66
2021/05/26 05:04:46;;;;;;;0.30;0.30;;;;;;;8.77;92.25;99512.94;5083835;28;20024;-68
2021/05/26 05:07:11;;;;;;;0.40;0.40;;;;;;;8.80;92.24;99512.06;5083560;28;20036;-68
2021/05/26 05:09:36;;;;;;;0.30;0.30;;;;;;;8.88;92.33;99525.72;5083408;28;20016;-64
2021/05/26 05:12:02;;;;;;;0.30;0.30;;;;;;;8.90;92.21;99520.50;5082271;28;20016;-66
2021/05/26 05:14:27;;;;;;;0.30;0.30;;;;;;;8.90;92.03;99529.13;5083572;28;20027;-67
2021/05/26 05:16:52;;;;;;;0.30;0.30;;;;;;;8.91;92.11;99536.00;5083770;28;20078;-64
2021/05/26 05:19:18;;;;;;;0.30;0.30;;;;;;;8.87;92.02;99529.19;5083497;28;20048;-66
2021/05/26 05:21:43;;;;;;;0.30;0.30;;;;;;;9.01;91.19;99535.91;5083336;28;20077;-66
2021/05/26 05:24:09;;;;;;;0.30;0.30;;;;;;;8.95;91.50;99530.78;5083549;28;20024;-67
2021/05/26 05:26:34;;;;;;;0.30;0.30;;;;;;;9.03;91.13;99531.53;5083656;28;20017;-66
2021/05/26 05:29:00;;;;;;;0.30;0.30;;;;;;;9.04;91.20;99525.50;5082533;28;20082;-66
2021/05/26 05:31:25;;;;;;;0.30;0.30;;;;;;;9.29;89.96;99523.34;5083356;28;20461;-65
2021/05/26 05:33:51;;;;;;;0.30;0.30;;;;;;;9.17;90.03;99526.97;5083559;28;20024;-66
2021/05/26 05:36:16;;;;;;;0.30;0.30;;;;;;;9.16;90.30;99522.69;5083392;28;20074;-66
2021/05/26 05:38:41;;;;;;;0.30;0.30;;;;;;;9.17;90.65;99529.56;5083787;28;20032;-65
2021/05/26 05:41:07;;;;;;;0.30;0.30;;;;;;;9.30;90.44;99527.63;5083121;28;20016;-65
2021/05/26 05:43:33;;;;;;;0.30;0.30;;;;;;;9.37;90.58;99525.78;5083136;28;20033;-65
2021/05/26 05:46:00;;;;;;;0.30;0.30;;;;;;;9.48;90.47;99519.56;5083477;28;20024;-66
2021/05/26 05:48:25;;;;;;;0.20;0.20;;;;;;;9.57;89.48;99529.75;5082162;28;20360;-63
2021/05/26 05:50:51;;;;;;;0.30;0.30;;;;;;;9.59;90.18;99520.22;5083215;28;20021;-64
2021/05/26 05:53:16;;;;;;;0.30;0.30;;;;;;;9.83;89.75;99525.81;5082020;28;20051;-65
2021/05/26 05:55:42;;;;;;;0.30;0.30;;;;;;;10.05;90.23;99520.19;5083389;28;20020;-61
2021/05/26 05:58:10;;;;;;;0.20;0.20;;;;;;;10.43;90.32;99533.25;5083051;28;20104;-61
2021/05/26 06:00:37;;;;;;;0.20;0.20;;;;;;;10.78;90.47;99522.97;5082960;28;20017;-61
2021/05/26 06:03:03;;;;;;;0.30;0.30;;;;;;;10.95;89.07;99521.72;5083514;28;20028;-62
2021/05/26 06:05:28;;;;;;;0.20;0.20;;;;;;;11.11;89.14;99535.19;5083442;28;20028;-61
2021/05/26 06:07:53;;;;;;;0.30;0.30;;;;;;;11.26;88.61;99523.56;5083492;28;20093;-60
2021/05/26 06:10:19;;;;;;;0.20;0.20;;;;;;;11.57;88.48;99520.16;5083418;28;20480;-61
2021/05/26 06:12:46;;;;;;;0.30;0.30;;;;;;;11.57;84.51;99512.34;5083232;28;20031;-60
2021/05/26 06:15:12;;;;;;;0.20;0.20;;;;;;;11.39;85.76;99542.25;5083028;28;20020;-61
2021/05/26 06:17:37;;;;;;;0.30;0.30;;;;;;;11.37;86.61;99531.91;5082933;28;20116;-61
2021/05/26 06:20:03;;;;;;;0.30;0.30;;;;;;;11.60;85.95;99533.06;5083059;28;20323;-61
2021/05/26 06:22:28;;;;;;;0.20;0.20;;;;;;;11.59;84.43;99531.38;5083106;28;20021;-62
2021/05/26 06:24:54;;;;;;;0.30;0.30;;;;;;;11.49;84.69;99538.53;5083045;28;20025;-62
2021/05/26 06:27:19;;;;;;;0.30;0.30;;;;;;;11.56;85.70;99540.97;5083511;28;20056;-61
2021/05/26 06:29:45;;;;;;;0.30;0.30;;;;;;;11.60;81.36;99551.25;5083220;28;20036;-61
2021/05/26 06:32:10;;;;;;;0.30;0.30;;;;;;;11.36;83.67;99553.59;5083136;28;20029;-61
2021/05/26 06:34:35;;;;;;;0.65;0.65;;;;;;;11.51;79.60;99538.50;5083340;28;20166;-62
2021/05/26 06:37:01;;;;;;;0.30;0.30;;;;;;;11.54;80.52;99533.22;5083346;28;20028;-61
2021/05/26 06:39:27;;;;;;;0.20;0.20;;;;;;;11.42;82.94;99538.75;5083103;28;20027;-62
2021/05/26 06:41:52;;;;;;;0.20;0.20;;;;;;;11.76;85.11;99541.28;5085658;28;20031;-62
2021/05/26 06:44:18;;;;;;;0.30;0.30;;;;;;;12.22;84.17;99533.09;5086758;28;20031;-62
2021/05/26 06:46:43;;;;;;;0.30;0.30;;;;;;;12.58;82.89;99529.47;5085385;28;20021;-61
2021/05/26 06:49:09;;;;;;;0.20;0.20;;;;;;;12.78;82.90;99530.56;5086770;28;20017;-61
2021/05/26 06:51:34;;;;;;;0.30;0.30;;;;;;;13.09;78.56;99529.59;5086461;28;20021;-61
2021/05/26 06:54:00;;;;;;;0.20;0.20;;;;;;;13.25;75.73;99536.88;5086403;28;20524;-62
2021/05/26 06:56:25;;;;;;;0.30;0.30;;;;;;;13.23;77.14;99534.34;5086604;28;20060;-61
2021/05/26 06:58:51;;;;;;;0.20;0.20;;;;;;;13.46;78.96;99527.50;5086236;28;20029;-62
2021/05/26 07:01:16;;;;;;;0.30;0.30;;;;;;;13.78;74.82;99527.28;5085830;28;20135;-61
2021/05/26 07:03:42;;;;;;;0.20;0.20;;;;;;;13.96;77.92;99528.38;5086259;28;20024;-61
2021/05/26 07:06:07;;;;;;;0.20;0.20;;;;;;;14.35;77.50;99534.78;5086246;28;20021;-62
2021/05/26 07:08:32;;;;;;;0.20;0.20;;;;;;;14.40;72.38;99544.19;5086306;28;20040;-61
2021/05/26 07:10:58;;;;;;;0.20;0.20;;;;;;;14.22;73.19;99539.59;5086146;28;20060;-62
2021/05/26 07:13:23;;;;;;;0.20;0.20;;;;;;;13.86;73.76;99553.97;5086181;28;20027;-62
2021/05/26 07:15:49;;;;;;;0.20;0.20;;;;;;;13.52;74.29;99552.53;5086010;28;20496;-62
2021/05/26 07:18:14;;;;;;;0.20;0.20;;;;;;;13.27;74.88;99545.53;5085791;28;20542;-63
2021/05/26 07:20:43;;;;;;;0.20;0.20;;;;;;;13.09;74.42;99546.97;5085932;28;20031;-62
2021/05/26 07:23:09;;;;;;;0.20;0.20;;;;;;;12.85;74.69;99542.50;5086027;28;20020;-61
2021/05/26 07:25:34;;;;;;;0.20;0.20;;;;;;;13.05;75.10;99550.59;5085891;28;20051;-62
2021/05/26 07:28:00;;;;;;;0.30;0.30;;;;;;;13.58;74.03;99541.88;5084720;28;20040;-63
2021/05/26 07:30:25;;;;;;;0.25;0.25;;;;;;;13.91;74.10;99547.72;5085730;28;20028;-63
2021/05/26 07:32:50;;;;;;;0.20;0.20;;;;;;;14.29;74.48;99552.41;5085654;28;20028;-63
2021/05/26 07:35:16;;;;;;;0.20;0.20;;;;;;;14.35;74.42;99544.34;5085706;28;20032;-63
2021/05/26 07:37:42;;;;;;;0.30;0.30;;;;;;;14.37;69.36;99543.41;5085598;28;20489;-62
2021/05/26 07:40:09;;;;;;;0.20;0.20;;;;;;;14.16;69.07;99544.19;5085686;28;20032;-63
2021/05/26 07:42:35;;;;;;;0.20;0.20;;;;;;;13.85;71.39;99549.63;5084379;28;20048;-63
2021/05/26 07:45:01;;;;;;;0.20;0.20;;;;;;;13.97;71.11;99553.56;5085178;28;20025;-63
2021/05/26 07:47:26;;;;;;;0.20;0.20;;;;;;;14.09;71.45;99562.69;5085509;28;20023;-62
2021/05/26 07:49:52;;;;;;;0.22;0.22;;;;;;;14.49;71.62;99559.50;5084299;28;20016;-63
2021/05/26 07:52:21;;;;;;;0.25;0.25;;;;;;;14.90;68.11;99552.75;5084186;28;20031;-62
2021/05/26 07:54:50;;;;;;;0.30;0.30;;;;;;;14.72;67.82;99561.22;5084888;28;20044;-62
2021/05/26 07:57:16;;;;;;;0.20;0.20;;;;;;;15.04;70.68;99563.50;5084965;28;20024;-62
2021/05/26 07:59:43;;;;;;;0.20;0.20;;;;;;;15.64;70.15;99547.97;5084509;28;20161;-62
2021/05/26 08:02:10;;;;;;;0.20;0.20;;;;;;;15.88;64.64;99547.81;5084606;28;20031;-67
2021/05/26 08:04:36;;;;;;;0.20;0.20;;;;;;;15.31;65.02;99565.00;5084694;28;20021;-66
2021/05/26 08:07:01;;;;;;;0.20;0.20;;;;;;;14.91;66.99;99570.09;5084653;28;20145;-67
2021/05/26 08:09:26;;;;;;;0.20;0.20;;;;;;;14.55;65.83;99563.63;5083257;28;20013;-67
2021/05/26 08:11:52;;;;;;;0.30;0.30;;;;;;;14.17;65.45;99564.19;5084335;28;20059;-67
2021/05/26 08:14:17;;;;;;;0.20;0.20;;;;;;;13.70;66.81;99565.84;5084238;28;20036;-67
2021/05/26 08:16:43;;;;;;;0.20;0.20;;;;;;;13.46;66.70;99573.56;5084506;28;20025;-67
2021/05/26 08:19:08;;;;;;;0.30;0.30;;;;;;;13.24;67.21;99574.28;5084234;28;20044;-67
2021/05/26 08:21:35;;;;;;;0.20;0.20;;;;;;;13.08;69.33;99566.94;5082851;28;20024;-67
2021/05/26 08:24:00;;;;;;;0.20;0.20;;;;;;;13.16;70.23;99576.28;5084146;28;20032;-67
2021/05/26 08:26:25;;;;;;;0.30;0.30;;;;;;;13.30;70.41;99570.63;5084035;28;20035;-67
2021/05/26 08:28:52;;;;;;;0.30;0.30;;;;;;;13.45;69.92;99577.09;5082675;28;20124;-67
2021/05/26 08:31:21;;;;;;;0.30;0.30;;;;;;;13.58;67.77;99552.31;5083660;28;20485;-66
2021/05/26 08:33:47;;;;;;;0.30;0.30;;;;;;;13.53;68.56;99561.22;5083973;28;20417;-67
2021/05/26 08:36:15;;;;;;;0.22;0.22;;;;;;;13.71;66.91;99565.78;5083997;28;20039;-67
2021/05/26 08:38:42;;;;;;;0.20;0.20;;;;;;;13.77;67.16;99556.03;5083943;28;20029;-67
2021/05/26 08:41:10;;;;;;;0.38;0.38;;;;;;;13.78;66.77;99569.03;5083745;28;20016;-67
2021/05/26 08:43:45;;;;;;;0.20;0.20;;;;;;;13.69;66.66;99567.56;5083937;28;20024;-67
2021/05/26 08:46:10;;;;;;;0.20;0.20;;;;;;;13.53;66.55;99576.84;5083792;28;20028;-68
2021/05/26 08:48:37;;;;;;;0.20;0.20;;;;;;;13.37;66.55;99575.56;5082484;28;20023;-69
2021/05/26 08:51:06;;;;;;;0.30;0.30;;;;;;;13.23;68.40;99573.44;5083660;28;20459;-67
2021/05/26 08:53:34;;;;;;;0.30;0.30;;;;;;;13.14;68.23;99590.22;5083934;28;20020;-67
2021/05/26 08:55:59;;;;;;;0.30;0.30;;;;;;;12.93;67.63;99580.47;5082134;28;20465;-68
2021/05/26 08:58:24;;;;;;;0.20;0.20;;;;;;;12.78;68.22;99580.06;5083518;28;20084;-68
2021/05/26 09:00:50;;;;;;;0.20;0.20;;;;;;;12.70;67.90;99569.88;5083817;28;20021;-68
2021/05/26 09:03:15;;;;;;;0.30;0.30;;;;;;;12.75;69.45;99564.53;5083504;28;20076;-69
2021/05/26 09:05:44;;;;;;;0.30;0.30;;;;;;;12.95;68.69;99568.25;5083497;28;20084;-69
2021/05/26 09:08:15;;;;;;;0.30;0.30;;;;;;;13.15;68.81;99580.63;5083383;28;20024;-69
2021/05/26 09:11:09;;;;;;;0.38;0.38;;;;;;;13.44;69.87;99570.16;5083325;28;20390;-69
2021/05/26 09:13:40;;;;;;;0.28;0.28;;;;;;;14.55;66.14;99568.88;5070066;28;20039;-69
2021/05/26 09:16:23;;;;;;;0.20;0.20;;;;;;;14.92;63.08;99569.22;5083055;28;20028;-67
2021/05/26 09:18:59;;;;;;;0.30;0.30;;;;;;;14.73;64.30;99575.97;5081673;28;20052;-67
2021/05/26 09:21:50;;;;;;;0.20;0.20;;;;;;;14.58;64.38;99572.22;5083142;28;20028;-67
2021/05/26 09:24:18;;;;;;;0.30;0.30;;;;;;;14.27;63.30;99572.50;5083176;28;20028;-68
2021/05/26 09:27:01;;;;;;;0.20;0.20;;;;;;;13.92;63.64;99571.13;5083124;28;20033;-67
2021/05/26 09:29:30;;;;;;;0.22;0.22;;;;;;;13.64;66.62;99574.72;5081294;28;20050;-67
2021/05/26 09:32:24;;;;;;;0.30;0.30;;;;;;;13.44;65.21;99581.44;5082888;28;20028;-67
2021/05/26 09:34:51;;;;;;;0.30;0.30;;;;;;;13.14;66.73;99579.81;5083144;28;20028;-67
2021/05/26 09:37:21;;;;;;;0.20;0.20;;;;;;;13.17;66.31;99580.59;5083119;28;20044;-68
2021/05/26 09:39:53;;;;;;;0.22;0.22;;;;;;;12.95;65.77;99576.94;5082969;28;20016;-68
2021/05/26 09:42:31;;;;;;;0.30;0.30;;;;;;;13.02;63.91;99580.19;5083102;28;20016;-69
2021/05/26 09:45:02;;;;;;;0.20;0.20;;;;;;;12.75;65.41;99591.44;5082671;28;20032;-68
2021/05/26 09:47:49;;;;;;;0.30;0.30;;;;;;;12.66;68.95;99591.72;5083073;28;20032;-68
2021/05/26 09:50:19;;;;;;;0.30;0.30;;;;;;;12.74;69.01;99588.88;5083105;28;20043;-68
2021/05/26 09:52:54;;;;;;;0.30;0.30;;;;;;;12.80;69.77;99591.28;5083104;28;20024;-69
2021/05/26 09:55:31;;;;;;;0.30;0.30;;;;;;;12.87;68.32;99584.13;5083090;28;20056;-68
2021/05/26 09:57:58;;;;;;;0.30;0.30;;;;;;;12.79;68.92;99584.38;5083162;28;20024;-68
2021/05/26 10:00:25;;;;;;;0.25;0.25;;;;;;;12.77;68.40;99587.03;5082689;28;20017;-68
2021/05/26 10:02:51;;;;;;;0.20;0.20;;;;;;;12.74;68.41;99591.47;5082854;28;20055;-68
2021/05/26 10:05:19;;;;;;;0.30;0.30;;;;;;;12.64;69.51;99591.75;5083114;28;20032;-68
2021/05/26 10:07:53;;;;;;;0.20;0.20;;;;;;;12.62;70.21;99592.72;5081685;28;20059;-67
2021/05/26 10:10:20;;;;;;;0.30;0.30;;;;;;;12.56;69.89;99587.66;5081718;28;20020;-67
2021/05/26 10:12:52;;;;;;;0.20;0.20;;;;;;;12.54;69.73;99585.09;5083048;28;20505;-68
2021/05/26 10:15:19;;;;;;;0.30;0.30;;;;;;;12.53;70.86;99588.63;5081529;28;20476;-68
2021/05/26 10:17:51;;;;;;;0.40;0.40;;;;;;;12.55;68.65;99581.63;5086780;28;20040;-68
2021/05/26 10:20:19;;;;;;;0.30;0.30;;;;;;;12.45;70.05;99586.25;5085384;28;20088;-69
2021/05/26 10:22:45;;;;;;;0.20;0.20;;;;;;;12.49;70.40;99585.25;5086565;28;20040;-68
2021/05/26 10:25:13;;;;;;;0.30;0.30;;;;;;;12.54;70.43;99585.09;5086770;28;20027;-68
2021/05/26 10:27:44;;;;;;;0.47;0.47;;;;;;;12.57;70.39;99582.41;5085362;28;20048;-68
2021/05/26 10:30:10;;;;;;;0.30;0.30;;;;;;;12.69;72.12;99594.22;5086362;28;20116;-68
2021/05/26 10:33:11;;;;;;;0.30;0.30;;;;;;;12.85;71.85;99586.78;5085210;28;20021;-68
2021/05/26 10:35:57;;;;;;;0.30;0.30;;;;;;;13.01;72.14;99579.34;5023952;28;20030;-68
2021/05/26 10:38:23;;;;;;;0.30;0.30;;;;;;;13.15;70.11;99583.25;5007387;28;20036;-69
2021/05/26 10:40:59;;;;;;;0.30;0.30;;;;;;;13.22;69.28;99582.16;5023773;28;20030;-68
2021/05/26 10:43:25;;;;;;;0.20;0.20;;;;;;;13.22;68.26;99578.69;5023758;28;20042;-68
2021/05/26 10:45:53;;;;;;;0.30;0.30;;;;;;;13.23;69.66;99581.25;5022214;28;20026;-68
2021/05/26 10:48:41;;;;;;;0.30;0.30;;;;;;;13.27;69.39;99592.44;5023887;28;20021;-68
2021/05/26 10:51:07;;;;;;;0.20;0.20;;;;;;;13.22;68.94;99587.38;5007132;28;20037;-68
2021/05/26 10:53:43;;;;;;;0.30;0.30;;;;;;;13.16;68.16;99592.78;5023784;28;20057;-68
2021/05/26 10:56:37;;;;;;;0.82;0.82;;;;;;;13.11;69.16;99585.13;5023715;28;20038;-68
2021/05/26 10:59:15;;;;;;;0.47;0.47;;;;;;;13.03;69.79;99571.47;5023652;28;20022;-68
2021/05/26 11:02:02;;;;;;;0.30;0.30;;;;;;;13.19;71.29;99584.00;5023277;28;20029;-67
2021/05/26 11:04:27;;;;;;;0.30;0.30;;;;;;;13.30;72.40;99578.44;5023461;28;20018;-66
2021/05/26 11:07:16;;;;;;;0.30;0.30;;;;;;;13.43;72.73;99574.53;5023583;28;20026;-68
2021/05/26 11:09:56;;;;;;;0.30;0.30;;;;;;;13.45;73.10;99577.91;5047039;28;20034;-67
2021/05/26 11:12:21;;;;;;;0.20;0.20;;;;;;;13.51;70.84;99579.50;5085935;28;20024;-68
2021/05/26 11:14:53;;;;;;;0.20;0.20;;;;;;;13.58;69.93;99577.53;5085688;28;20042;-67
2021/05/26 11:17:21;;;;;;;0.30;0.30;;;;;;;13.70;70.59;99581.47;5085788;28;20044;-68
2021/05/26 11:19:48;;;;;;;0.20;0.20;;;;;;;13.84;69.18;99578.38;5085659;28;20035;-67
2021/05/26 11:22:15;;;;;;;0.20;0.20;;;;;;;13.88;69.01;99575.59;5085356;28;20120;-67
2021/05/26 11:24:46;;;;;;;0.20;0.20;;;;;;;14.13;69.66;99579.97;5085626;28;20021;-67
2021/05/26 11:27:20;;;;;;;0.28;0.28;;;;;;;14.37;70.78;99577.34;5085949;28;20024;-68
2021/05/26 11:29:51;;;;;;;0.25;0.25;;;;;;;14.53;70.77;99581.97;5085660;28;20504;-66
2021/05/26 11:32:22;;;;;;;0.30;0.30;;;;;;;14.55;70.67;99574.94;5085396;28;20074;-67
2021/05/26 11:34:49;;;;;;;0.20;0.20;;;;;;;14.81;70.82;99588.78;5085856;28;20048;-67
2021/05/26 11:37:25;;;;;;;0.20;0.20;;;;;;;14.85;70.64;99577.31;5085691;28;20025;-67
2021/05/26 11:39:52;;;;;;;0.20;0.20;;;;;;;14.95;71.27;99580.38;5085303;28;20025;-67